createdAt,value
2022-10-01T00:01:19.280Z,9.13
2022-10-01T00:03:47.586Z,8.40
2022-10-01T00:06:19.241Z,8.32
2022-10-01T00:08:49.998Z,8.63
2022-10-01T00:11:22.852Z,7.67
2022-10-01T00:13:51.473Z,8.15
2022-10-01T00:16:29.097Z,8.13
2022-10-01T00:18:56.171Z,8.23
2022-10-01T00:21:26.172Z,8.30
2022-10-01T05:32:42.325Z,10.50
2022-10-01T05:35:10.226Z,10.85
2022-10-01T05:37:36.966Z,11.33
2022-10-01T05:40:04.110Z,11.05
2022-10-01T05:42:31.384Z,10.82
2022-10-01T05:45:01.995Z,10.82
2022-10-01T05:47:29.830Z,10.43
2022-10-01T05:49:57.117Z,10.07
2022-10-01T05:52:24.805Z,10.30
2022-10-01T05:54:51.490Z,10.35
2022-10-01T05:57:18.019Z,9.52
2022-10-01T05:59:44.580Z,9.38
2022-10-01T06:02:11.153Z,9.80
2022-10-01T06:04:41.164Z,9.32
2022-10-01T06:07:07.980Z,9.77
2022-10-01T06:09:34.639Z,9.27
2022-10-01T06:12:01.544Z,9.32
2022-10-01T06:14:28.054Z,9.23
2022-10-01T06:16:54.962Z,9.93
2022-10-01T06:19:22.081Z,8.48
2022-10-01T06:21:48.613Z,8.25
2022-10-01T06:24:15.208Z,8.52
2022-10-01T06:26:41.743Z,8.43
2022-10-01T06:29:08.233Z,8.60
2022-10-01T06:31:35.061Z,8.55
2022-10-01T06:34:01.999Z,9.38
2022-10-01T06:36:28.765Z,8.23
2022-10-01T06:38:55.384Z,9.03
2022-10-01T06:41:21.907Z,9.10
2022-10-01T06:43:49.499Z,9.30
2022-10-01T06:46:16.066Z,8.23
2022-10-01T06:48:42.725Z,7.68
2022-10-01T06:51:09.266Z,7.53
2022-10-01T06:53:35.853Z,7.35
2022-10-01T06:56:07.214Z,6.80
2022-10-01T06:58:33.956Z,6.60
2022-10-01T07:01:02.187Z,6.78
2022-10-01T07:03:29.649Z,6.17
2022-10-01T07:06:02.492Z,6.15
2022-10-01T07:08:29.119Z,6.07
2022-10-01T07:11:02.603Z,5.97
2022-10-01T07:13:29.796Z,5.38
2022-10-01T07:15:57.808Z,5.47
2022-10-01T07:18:24.459Z,5.40
2022-10-01T07:20:51.709Z,5.70
2022-10-01T07:23:18.442Z,6.07
2022-10-01T07:25:45.733Z,6.10
2022-10-01T07:28:18.743Z,6.10
2022-10-01T07:30:48.157Z,5.40
2022-10-01T07:33:18.499Z,4.22
2022-10-01T07:35:47.758Z,2.90
2022-10-01T07:38:14.325Z,2.90
2022-10-01T07:40:41.701Z,3.00
2022-10-01T07:43:09.189Z,3.08
2022-10-01T07:45:36.248Z,3.78
2022-10-01T07:48:03.383Z,3.50
2022-10-01T07:50:30.637Z,3.35
2022-10-01T07:52:59.091Z,3.57
2022-10-01T07:55:28.399Z,3.58
2022-10-01T07:57:57.226Z,2.33
2022-10-01T08:00:25.763Z,2.28
2022-10-01T08:02:54.314Z,2.08
2022-10-01T08:05:25.403Z,1.90
2022-10-01T08:07:52.418Z,1.60
2022-10-01T08:10:20.707Z,2.08
2022-10-01T08:12:47.345Z,1.65
2022-10-01T08:15:16.642Z,1.70
2022-10-01T08:17:43.823Z,1.60
2022-10-01T08:20:13.727Z,1.77
2022-10-01T08:22:42.335Z,1.42
2022-10-01T08:25:09.964Z,1.70
2022-10-01T08:27:37.681Z,1.55
2022-10-01T08:30:05.441Z,1.60
2022-10-01T08:32:32.600Z,1.63
2022-10-01T08:34:59.954Z,2.05
2022-10-01T08:37:29.904Z,1.85
2022-10-01T08:39:56.878Z,1.73
2022-10-01T08:42:42.144Z,1.83
2022-10-01T08:45:21.841Z,1.60
2022-10-01T08:48:05.180Z,2.15
2022-10-01T08:51:12.464Z,1.92
2022-10-01T08:53:57.849Z,2.10
2022-10-01T08:56:31.232Z,2.03
2022-10-01T08:59:00.912Z,2.03
2022-10-01T09:01:28.449Z,2.13
2022-10-01T09:03:55.908Z,1.95
2022-10-01T09:06:29.226Z,2.20
2022-10-01T09:09:01.774Z,2.47
2022-10-01T09:12:06.248Z,2.10
2022-10-01T09:14:49.754Z,2.35
2022-10-01T09:17:26.462Z,1.50
2022-10-01T09:20:22.094Z,2.42
2022-10-01T09:23:00.923Z,2.33
2022-10-01T09:25:28.012Z,2.20
2022-10-01T09:28:03.077Z,2.60
2022-10-01T09:30:31.770Z,2.20
2022-10-01T09:33:15.841Z,2.22
2022-10-01T09:35:45.459Z,2.37
2022-10-01T09:38:21.703Z,2.15
2022-10-01T09:40:49.245Z,2.10
2022-10-01T09:43:19.937Z,1.45
2022-10-01T09:45:48.487Z,1.98
2022-10-01T09:48:30.679Z,2.00
2022-10-01T09:51:22.810Z,2.00
2022-10-01T09:54:26.806Z,1.90
2022-10-01T09:57:00.498Z,2.30
2022-10-01T09:59:34.893Z,2.33
2022-10-01T10:02:04.041Z,1.97
2022-10-01T10:04:31.052Z,2.05
2022-10-01T10:07:06.021Z,2.40
2022-10-01T10:09:35.174Z,2.10
2022-10-01T10:12:02.552Z,1.95
2022-10-01T10:14:35.843Z,2.00
2022-10-01T10:17:22.064Z,1.80
2022-10-01T10:19:51.890Z,2.50
2022-10-01T10:22:26.577Z,2.03
2022-10-01T10:24:58.675Z,2.40
2022-10-01T10:27:29.155Z,1.50
2022-10-01T10:30:15.496Z,2.10
2022-10-01T10:32:44.448Z,2.60
2022-10-01T10:35:22.975Z,2.45
2022-10-01T10:37:53.625Z,2.30
2022-10-01T10:40:41.968Z,2.40
2022-10-01T10:43:23.359Z,1.70
2022-10-01T10:45:56.486Z,2.22
2022-10-01T10:48:36.221Z,2.00
2022-10-01T10:51:05.292Z,1.83
2022-10-01T10:53:46.914Z,1.90
2022-10-01T10:56:22.874Z,2.10
2022-10-01T10:58:52.707Z,2.58
2022-10-01T11:01:27.887Z,2.28
2022-10-01T11:03:57.704Z,2.67
2022-10-01T11:06:24.447Z,2.20
2022-10-01T11:09:00.440Z,2.40
2022-10-01T11:11:43.243Z,2.28
2022-10-01T11:14:32.377Z,2.00
2022-10-01T11:17:18.859Z,1.90
2022-10-01T11:20:22.339Z,2.20
2022-10-01T11:23:08.091Z,2.13
2022-10-01T11:25:46.552Z,2.17
2022-10-01T11:28:28.359Z,1.42
2022-10-01T11:31:15.395Z,2.67
2022-10-01T11:34:14.839Z,1.60
2022-10-01T11:36:56.036Z,1.75
2022-10-01T11:39:24.702Z,2.50
2022-10-01T11:42:06.943Z,2.08
2022-10-01T11:44:43.658Z,2.10
2022-10-01T11:47:16.631Z,2.03
2022-10-01T11:49:54.648Z,2.00
2022-10-01T11:52:32.825Z,2.72
2022-10-01T11:55:51.476Z,2.08
2022-10-01T11:58:58.826Z,2.13
2022-10-01T12:01:49.316Z,2.30
2022-10-01T12:04:39.224Z,1.75
2022-10-01T12:07:08.683Z,2.22
2022-10-01T12:09:54.561Z,2.10
2022-10-01T12:12:40.915Z,1.77
2022-10-01T12:15:34.866Z,2.07
2022-10-01T12:18:42.435Z,2.17
2022-10-01T12:21:26.011Z,2.50
2022-10-01T12:24:35.177Z,2.33
2022-10-01T12:27:31.414Z,2.55
2022-10-01T12:30:25.979Z,2.03
2022-10-01T12:33:12.344Z,2.20
2022-10-01T12:39:50.946Z,1.55
2022-10-01T12:42:50.808Z,1.42
2022-10-01T12:45:45.812Z,1.00
2022-10-01T12:48:38.703Z,2.60
2022-10-01T12:51:35.713Z,2.17
2022-10-01T12:54:15.850Z,1.95
2022-10-01T12:57:20.881Z,1.33
2022-10-01T13:00:08.741Z,1.30
2022-10-01T13:03:05.323Z,1.80
2022-10-01T13:06:05.167Z,1.08
2022-10-01T13:08:50.940Z,1.45
2022-10-01T13:11:51.780Z,1.50
2022-10-01T13:14:20.188Z,1.90
2022-10-01T13:16:56.299Z,1.65
2022-10-01T13:20:03.644Z,1.55
2022-10-01T13:22:36.215Z,2.20
2022-10-01T13:25:15.478Z,2.33
2022-10-01T13:28:02.099Z,1.50
2022-10-01T13:30:41.448Z,1.60
2022-10-01T13:33:29.240Z,1.60
2022-10-01T13:36:00.784Z,1.20
2022-10-01T13:38:47.650Z,1.52
2022-10-01T13:41:27.425Z,1.57
2022-10-01T13:43:59.266Z,1.80
2022-10-01T13:46:31.261Z,2.00
2022-10-01T13:49:21.241Z,1.42
2022-10-01T13:51:47.829Z,1.17
2022-10-01T13:54:27.805Z,1.83
2022-10-01T13:56:55.086Z,1.98
2022-10-01T13:59:43.587Z,1.85
2022-10-01T14:02:32.287Z,1.70
2022-10-01T14:05:17.429Z,1.80
2022-10-01T14:08:11.843Z,1.57
2022-10-01T14:11:14.130Z,1.55
2022-10-01T14:14:06.626Z,2.10
2022-10-01T14:16:40.125Z,2.58
2022-10-01T14:19:08.855Z,2.08
2022-10-01T14:21:41.837Z,2.00
2022-10-01T14:24:08.363Z,1.98
2022-10-01T14:27:24.929Z,2.08
2022-10-01T14:30:12.867Z,2.10
2022-10-01T14:33:05.183Z,1.80
2022-10-01T14:35:36.778Z,1.77
2022-10-01T14:38:11.020Z,1.92
2022-10-01T14:40:40.813Z,2.00
2022-10-01T14:43:19.571Z,3.00
2022-10-01T14:46:06.792Z,3.03
2022-10-01T14:48:35.846Z,2.10
2022-10-01T14:51:05.291Z,3.80
2022-10-01T14:53:42.858Z,6.97
2022-10-01T14:56:14.172Z,2.63
2022-10-01T14:59:02.908Z,2.40
2022-10-01T15:01:29.843Z,2.10
2022-10-01T15:03:56.602Z,1.80
2022-10-01T15:06:27.693Z,2.20
2022-10-01T15:08:56.186Z,2.08
2022-10-01T15:11:24.443Z,1.70
2022-10-01T15:13:54.107Z,2.10
2022-10-01T15:16:24.079Z,3.30
2022-10-01T15:18:57.361Z,2.00
2022-10-01T15:21:32.809Z,1.55
2022-10-01T15:23:59.973Z,1.60
2022-10-01T15:26:27.588Z,1.30
2022-10-01T15:29:13.419Z,1.73
2022-10-01T15:31:41.274Z,1.80
2022-10-01T15:34:12.198Z,2.03
2022-10-01T15:36:40.003Z,2.00
2022-10-01T15:39:38.388Z,1.75
2022-10-01T15:42:28.291Z,1.60
2022-10-01T15:45:07.656Z,1.80
2022-10-01T15:47:51.699Z,1.70
2022-10-01T15:50:20.357Z,2.00
2022-10-01T15:53:03.938Z,1.75
2022-10-01T15:55:46.992Z,2.13
2022-10-01T15:58:35.387Z,1.80
2022-10-01T16:01:09.518Z,1.73
2022-10-01T16:03:48.159Z,2.10
2022-10-01T16:06:37.935Z,1.90
2022-10-01T16:09:20.949Z,3.00
2022-10-01T16:12:04.317Z,2.65
2022-10-01T16:14:36.749Z,1.70
2022-10-01T16:17:18.909Z,2.88
2022-10-01T16:19:50.627Z,1.88
2022-10-01T16:22:28.260Z,1.50
2022-10-01T16:24:59.411Z,2.03
2022-10-01T16:27:43.774Z,2.50
2022-10-01T16:30:22.263Z,3.08
2022-10-01T16:32:49.162Z,4.03
2022-10-01T16:35:23.153Z,2.30
2022-10-01T16:37:52.175Z,2.05
2022-10-01T16:40:29.804Z,3.63
2022-10-01T16:42:59.379Z,2.67
2022-10-01T16:45:37.989Z,3.60
2022-10-01T16:48:19.687Z,4.77
2022-10-01T16:50:46.795Z,2.90
2022-10-01T16:53:16.425Z,4.00
2022-10-01T16:55:44.371Z,3.60
2022-10-01T16:58:14.985Z,4.18
2022-10-01T17:00:41.990Z,4.93
2022-10-01T17:03:17.732Z,5.00
2022-10-01T17:05:45.140Z,4.90
2022-10-01T17:08:12.281Z,3.28
2022-10-01T17:10:47.676Z,4.00
2022-10-01T17:13:15.355Z,4.43
2022-10-01T17:15:43.947Z,3.25
2022-10-01T17:18:10.671Z,3.50
2022-10-01T17:20:38.233Z,4.38
2022-10-01T17:23:05.631Z,3.33
2022-10-01T17:25:35.761Z,2.60
2022-10-01T17:28:05.659Z,3.00
2022-10-01T17:30:32.807Z,2.78
2022-10-01T17:33:00.535Z,2.30
2022-10-01T17:35:29.147Z,3.60
2022-10-01T17:37:56.020Z,2.63
2022-10-01T17:40:22.764Z,2.50
2022-10-01T17:42:49.400Z,3.40
2022-10-01T17:45:16.181Z,2.90
2022-10-01T17:47:47.630Z,3.40
2022-10-01T17:50:15.509Z,6.20
2022-10-01T17:52:43.703Z,3.78
2022-10-01T17:55:12.224Z,3.35
2022-10-01T17:57:39.152Z,2.33
2022-10-01T18:00:06.578Z,2.30
2022-10-01T18:02:42.255Z,2.27
2022-10-01T18:05:12.185Z,2.38
2022-10-01T18:07:39.309Z,2.58
2022-10-01T18:10:08.151Z,2.35
2022-10-01T18:12:35.193Z,2.35
2022-10-01T18:15:02.420Z,2.27
2022-10-01T18:17:32.074Z,2.67
2022-10-01T18:19:58.887Z,2.38
2022-10-01T18:22:26.628Z,2.20
2022-10-01T18:24:53.265Z,2.70
2022-10-01T18:27:19.971Z,2.70
2022-10-01T18:29:46.564Z,2.33
2022-10-01T18:32:17.991Z,3.00
2022-10-01T18:34:58.818Z,2.13
2022-10-01T18:37:41.126Z,2.45
2022-10-01T18:40:10.645Z,2.17
2022-10-01T18:42:49.464Z,1.77
2022-10-01T18:45:39.248Z,2.63
2022-10-01T18:48:19.328Z,2.25
2022-10-01T18:51:14.771Z,2.47
2022-10-01T18:54:10.907Z,2.60
2022-10-01T18:56:40.498Z,2.45
2022-10-01T18:59:09.801Z,3.35
2022-10-01T19:02:13.912Z,2.58
2022-10-01T19:05:05.359Z,2.88
2022-10-01T19:08:00.401Z,2.33
2022-10-01T19:11:02.485Z,2.33
2022-10-01T19:13:32.942Z,2.95
2022-10-01T19:16:11.969Z,3.00
2022-10-01T19:19:07.656Z,3.45
2022-10-01T19:21:45.067Z,2.27
2022-10-01T19:24:28.163Z,2.72
2022-10-01T19:27:22.730Z,2.63
2022-10-01T19:29:58.578Z,2.70
2022-10-01T19:32:30.468Z,2.63
2022-10-01T19:35:16.749Z,2.43
2022-10-01T19:37:57.319Z,2.70
2022-10-01T19:40:33.090Z,2.70
2022-10-01T19:43:18.407Z,3.10
2022-10-01T19:45:51.710Z,2.33
2022-10-01T19:49:00.785Z,2.30
2022-10-01T19:51:38.784Z,2.75
2022-10-01T19:54:36.043Z,2.85
2022-10-01T19:57:06.778Z,2.60
2022-10-01T19:59:33.916Z,2.65
2022-10-01T20:02:32.626Z,2.60
2022-10-01T20:05:06.457Z,3.20
2022-10-01T20:07:46.676Z,2.78
2022-10-01T20:10:18.912Z,2.80
2022-10-01T20:13:01.916Z,3.22
2022-10-01T20:15:50.354Z,3.00
2022-10-01T20:18:27.778Z,3.00
2022-10-01T20:21:31.772Z,3.13
2022-10-01T20:24:29.007Z,3.00
2022-10-01T20:27:07.803Z,3.17
2022-10-01T20:29:47.086Z,3.07
2022-10-01T20:32:36.697Z,3.03
2022-10-01T20:35:29.160Z,4.03
2022-10-01T20:38:06.861Z,3.20
2022-10-01T20:40:49.893Z,3.10
2022-10-01T20:43:31.367Z,3.17
2022-10-01T20:46:02.877Z,3.30
2022-10-01T20:48:36.270Z,3.30
2022-10-01T20:51:12.123Z,3.10
2022-10-01T20:54:05.706Z,3.38
2022-10-01T20:56:38.149Z,3.30
2022-10-01T20:59:16.819Z,3.05
2022-10-01T21:01:53.503Z,3.50
2022-10-01T21:04:28.060Z,3.42
2022-10-01T21:07:02.447Z,3.58
2022-10-01T21:09:41.184Z,3.23
2022-10-01T21:12:17.734Z,3.30
2022-10-01T21:14:52.295Z,3.33
2022-10-01T21:17:54.029Z,3.55
2022-10-01T21:20:40.769Z,2.92
2022-10-01T21:23:31.601Z,3.40
2022-10-01T21:26:24.675Z,3.55
2022-10-01T21:28:51.384Z,3.35
2022-10-01T21:31:20.773Z,3.00
2022-10-01T21:34:09.358Z,2.92
2022-10-01T21:36:44.845Z,3.53
2022-10-01T21:39:27.710Z,3.70
2022-10-01T21:42:12.885Z,4.00
2022-10-01T21:45:16.832Z,3.00
2022-10-01T21:47:52.799Z,3.22
2022-10-01T21:50:44.408Z,3.20
2022-10-01T21:53:48.989Z,3.45
2022-10-01T21:56:38.567Z,3.33
2022-10-01T21:59:15.744Z,3.42
2022-10-01T22:02:10.353Z,3.72
2022-10-01T22:05:00.764Z,3.37
2022-10-01T22:07:57.550Z,3.70
2022-10-01T22:10:33.526Z,3.38
2022-10-01T22:13:04.403Z,3.30
2022-10-01T22:15:30.908Z,3.83
2022-10-01T22:17:59.811Z,3.60
2022-10-01T22:20:31.111Z,3.58
2022-10-01T22:23:01.430Z,3.28
2022-10-01T22:25:30.250Z,3.35
2022-10-01T22:28:03.407Z,3.85
2022-10-01T22:30:34.139Z,3.43
2022-10-01T22:33:12.716Z,2.92
2022-10-01T22:35:57.627Z,2.22
2022-10-01T22:38:40.438Z,1.33
2022-10-01T22:41:30.659Z,1.67
2022-10-01T22:43:57.335Z,1.83
2022-10-01T22:46:40.859Z,2.20
